Time;durP1;ratioP1;P1;durP2;ratioP2;P2;SDS_P1;SDS_P2;PMS_P1;PMS_P2;Temp;Humidity;BMP_temperature;BMP_pressure;BME280_temperature;BME280_humidity;BME280_pressure;Samples;Min_cycle;Max_cycle;Signal;HPM_P1;HPM_P2
2024/03/19 00:00:24;;;;;;;;;;;22.50;38.40;;;;;;5072520;28;19952;-71
2024/03/19 00:02:49;;;;;;;;;;;22.50;38.40;;;;;;5072168;28;19936;-69
2024/03/19 00:05:15;;;;;;;;;;;22.50;38.40;;;;;;5072224;28;19924;-69
2024/03/19 00:07:41;;;;;;;;;;;22.50;38.40;;;;;;5072340;28;19924;-69
2024/03/19 00:10:07;;;;;;;;;;;22.50;38.30;;;;;;5072537;28;20439;-69
2024/03/19 00:12:33;;;;;;;;;;;22.50;38.30;;;;;;5072055;28;19931;-69
2024/03/19 00:14:59;;;;;;;;;;;22.50;38.30;;;;;;5072251;28;19985;-69
2024/03/19 00:17:26;;;;;;;;;;;22.50;38.40;;;;;;5072382;28;19978;-71
2024/03/19 00:19:53;;;;;;;;;;;22.50;38.40;;;;;;5071920;28;19929;-69
2024/03/19 00:22:19;;;;;;;;;;;22.50;38.40;;;;;;5071766;28;19925;-69
2024/03/19 00:24:44;;;;;;;;;;;22.50;38.90;;;;;;5071965;28;19931;-69
2024/03/19 00:27:11;;;;;;;;;;;22.50;38.40;;;;;;5072192;28;20389;-69
2024/03/19 00:29:38;;;;;;;;;;;22.50;38.40;;;;;;5072244;28;19925;-69
2024/03/19 00:32:05;;;;;;;;;;;22.40;38.40;;;;;;5055216;28;19931;-69
2024/03/19 00:34:31;;;;;;;;;;;22.40;38.40;;;;;;5071833;28;19925;-69
2024/03/19 00:36:59;;;;;;;;;;;22.40;38.40;;;;;;5071937;28;20019;-68
2024/03/19 00:39:28;;;;;;;;;;;22.40;38.40;;;;;;5072149;28;19932;-69
2024/03/19 00:41:53;;;;;;;;;;;22.40;38.50;;;;;;5071793;28;19939;-69
2024/03/19 00:44:19;;;;;;;;;;;22.40;38.40;;;;;;5071485;28;19928;-68
2024/03/19 00:46:45;;;;;;;;;;;22.40;38.40;;;;;;5071925;28;19925;-68
2024/03/19 00:49:11;;;;;;;;;;;22.40;38.40;;;;;;5071891;28;20377;-68
2024/03/19 00:51:37;;;;;;;;;;;22.40;38.40;;;;;;5071989;28;20375;-69
2024/03/19 00:54:03;;;;;;;;;;;22.40;38.40;;;;;;5071631;28;19924;-68
2024/03/19 00:56:29;;;;;;;;;;;22.40;38.50;;;;;;5071537;28;19924;-69
2024/03/19 00:58:54;;;;;;;;;;;22.40;38.50;;;;;;5073988;28;19928;-69
2024/03/19 01:01:21;;;;;;;;;;;22.30;38.40;;;;;;5075499;28;20015;-69
2024/03/19 01:03:47;;;;;;;;;;;22.40;38.50;;;;;;5075418;28;19931;-68
2024/03/19 01:06:13;;;;;;;;;;;22.40;38.50;;;;;;5075467;28;19928;-68
2024/03/19 01:08:39;;;;;;;;;;;22.40;38.50;;;;;;5058972;28;20320;-69
2024/03/19 01:11:04;;;;;;;;;;;22.40;38.60;;;;;;5075324;28;20305;-68
2024/03/19 01:13:30;;;;;;;;;;;22.40;38.50;;;;;;5075095;28;19925;-69
2024/03/19 01:15:56;;;;;;;;;;;22.40;38.50;;;;;;5075169;28;19925;-68
2024/03/19 01:18:22;;;;;;;;;;;22.40;38.50;;;;;;5075352;28;20027;-69
2024/03/19 01:20:48;;;;;;;;;;;22.40;38.40;;;;;;5075341;28;20317;-69
2024/03/19 01:23:14;;;;;;;;;;;22.40;38.40;;;;;;5058243;28;20395;-69
2024/03/19 01:25:40;;;;;;;;;;;22.40;38.40;;;;;;5075206;28;19925;-70
2024/03/19 01:28:06;;;;;;;;;;;22.40;38.40;;;;;;5075154;28;20354;-69
2024/03/19 01:30:32;;;;;;;;;;;22.40;38.50;;;;;;5075361;28;20366;-69
2024/03/19 01:32:58;;;;;;;;;;;22.40;38.40;;;;;;5074984;28;19970;-69
2024/03/19 01:35:24;;;;;;;;;;;22.30;38.40;;;;;;5074826;28;19928;-69
2024/03/19 01:37:50;;;;;;;;;;;22.30;38.40;;;;;;5075070;28;19936;-69
2024/03/19 01:40:16;;;;;;;;;;;22.30;38.40;;;;;;5057989;28;20409;-69
2024/03/19 01:42:42;;;;;;;;;;;22.30;38.40;;;;;;5074836;28;19935;-68
2024/03/19 01:45:09;;;;;;;;;;;22.30;38.50;;;;;;5074620;28;20282;-68
2024/03/19 01:47:35;;;;;;;;;;;22.30;38.40;;;;;;5074788;28;19933;-69
2024/03/19 01:50:09;;;;;;;;;;;22.30;38.50;;;;;;5074702;28;20293;-69
2024/03/19 01:52:38;;;;;;;;;;;22.30;38.50;;;;;;5074867;28;20267;-69
2024/03/19 01:55:05;;;;;;;;;;;22.20;38.40;;;;;;5074681;28;19970;-69
2024/03/19 01:57:31;;;;;;;;;;;22.30;38.50;;;;;;5074391;28;20366;-69
2024/03/19 01:59:57;;;;;;;;;;;22.30;38.50;;;;;;5074443;28;20305;-69
2024/03/19 02:02:36;;;;;;;;;;;22.20;38.40;;;;;;5074469;28;19971;-69
2024/03/19 02:05:03;;;;;;;;;;;22.20;38.50;;;;;;5074271;28;19924;-69
2024/03/19 02:07:29;;;;;;;;;;;22.20;38.50;;;;;;5074236;28;20322;-69
2024/03/19 02:09:55;;;;;;;;;;;22.20;38.50;;;;;;5074059;28;20015;-69
2024/03/19 02:12:21;;;;;;;;;;;22.20;38.60;;;;;;5074391;28;19929;-69
2024/03/19 02:14:47;;;;;;;;;;;22.20;38.60;;;;;;5074586;28;19925;-69
2024/03/19 02:17:13;;;;;;;;;;;22.20;38.60;;;;;;5073988;28;19924;-69
2024/03/19 02:19:39;;;;;;;;;;;22.20;38.60;;;;;;5074248;28;19935;-69
2024/03/19 02:22:06;;;;;;;;;;;22.20;38.60;;;;;;5073927;28;20263;-69
2024/03/19 02:24:32;;;;;;;;;;;22.20;38.60;;;;;;5073683;28;19924;-69
2024/03/19 02:26:58;;;;;;;;;;;22.20;38.60;;;;;;5073961;28;19931;-70
2024/03/19 02:29:24;;;;;;;;;;;22.20;38.60;;;;;;5073825;28;20454;-69
2024/03/19 02:31:50;;;;;;;;;;;22.20;38.50;;;;;;5073791;28;19982;-69
2024/03/19 02:34:16;;;;;;;;;;;22.20;38.50;;;;;;5073605;28;19924;-69
2024/03/19 02:36:42;;;;;;;;;;;22.20;39.00;;;;;;5073845;28;19932;-69
2024/03/19 02:39:09;;;;;;;;;;;22.20;38.40;;;;;;5073647;28;19971;-69
2024/03/19 02:41:35;;;;;;;;;;;22.20;38.40;;;;;;5073645;28;19925;-69
2024/03/19 02:44:01;;;;;;;;;;;22.30;38.50;;;;;;5073452;28;19979;-69
2024/03/19 02:46:27;;;;;;;;;;;22.20;38.40;;;;;;5073618;28;19925;-69
2024/03/19 02:48:53;;;;;;;;;;;22.20;38.40;;;;;;5073350;28;19924;-69
2024/03/19 02:51:19;;;;;;;;;;;22.20;38.50;;;;;;5073401;28;19931;-68
2024/03/19 02:53:45;;;;;;;;;;;22.20;38.50;;;;;;5073284;28;19924;-69
2024/03/19 02:56:10;;;;;;;;;;;22.20;38.50;;;;;;5073413;28;19925;-69
2024/03/19 02:58:36;;;;;;;;;;;22.10;38.50;;;;;;5073189;28;19987;-69
2024/03/19 03:01:03;;;;;;;;;;;22.10;38.50;;;;;;5073231;28;19932;-69
2024/03/19 03:03:28;;;;;;;;;;;22.10;38.50;;;;;;5073170;28;20373;-69
2024/03/19 03:05:55;;;;;;;;;;;22.10;39.10;;;;;;5072866;28;19931;-69
2024/03/19 03:08:20;;;;;;;;;;;22.10;38.50;;;;;;5073235;28;19931;-69
2024/03/19 03:10:47;;;;;;;;;;;22.10;38.60;;;;;;5073082;28;19924;-69
2024/03/19 03:13:13;;;;;;;;;;;22.10;38.60;;;;;;5072330;28;20271;-69
2024/03/19 03:15:39;;;;;;;;;;;22.10;38.60;;;;;;5052885;28;19925;-69
2024/03/19 03:18:05;;;;;;;;;;;22.10;38.60;;;;;;5053183;28;20023;-69
2024/03/19 03:20:31;;;;;;;;;;;22.10;38.60;;;;;;5052257;28;19932;-69
2024/03/19 03:22:57;;;;;;;;;;;22.10;38.60;;;;;;5052609;28;19935;-69
2024/03/19 03:25:23;;;;;;;;;;;22.10;38.60;;;;;;5052642;28;19925;-69
2024/03/19 03:27:50;;;;;;;;;;;22.10;38.60;;;;;;5052603;28;19925;-69
2024/03/19 03:30:16;;;;;;;;;;;22.10;38.60;;;;;;5053051;28;20325;-69
2024/03/19 03:32:45;;;;;;;;;;;22.10;38.70;;;;;;5052914;28;19933;-69
2024/03/19 03:35:12;;;;;;;;;;;22.10;38.60;;;;;;5052797;28;19925;-69
2024/03/19 03:37:38;;;;;;;;;;;22.10;38.70;;;;;;5052495;28;19974;-69
2024/03/19 03:40:14;;;;;;;;;;;22.10;38.60;;;;;;5052484;28;19925;-69
2024/03/19 03:42:41;;;;;;;;;;;22.10;38.50;;;;;;5041483;28;19924;-69
2024/03/19 03:45:07;;;;;;;;;;;22.10;38.50;;;;;;5072470;28;19925;-69
2024/03/19 03:47:33;;;;;;;;;;;22.10;38.50;;;;;;5072284;28;19925;-69
2024/03/19 03:49:59;;;;;;;;;;;22.10;38.50;;;;;;5072351;28;19925;-70
2024/03/19 03:52:27;;;;;;;;;;;22.10;38.50;;;;;;5072150;28;19935;-69
2024/03/19 03:54:54;;;;;;;;;;;22.10;38.50;;;;;;5055880;28;19924;-69
2024/03/19 03:57:20;;;;;;;;;;;22.10;38.50;;;;;;5072226;28;19954;-69
2024/03/19 03:59:45;;;;;;;;;;;22.10;38.50;;;;;;5072203;28;19924;-69
2024/03/19 04:02:11;;;;;;;;;;;22.00;38.50;;;;;;5072083;28;19924;-69
2024/03/19 04:04:37;;;;;;;;;;;22.10;38.60;;;;;;5072005;28;19924;-68
2024/03/19 04:07:03;;;;;;;;;;;22.00;38.60;;;;;;5055632;28;19960;-70
2024/03/19 04:09:29;;;;;;;;;;;22.00;38.60;;;;;;5055766;28;19924;-69
2024/03/19 04:11:55;;;;;;;;;;;22.00;38.60;;;;;;5072396;28;19924;-69
2024/03/19 04:14:21;;;;;;;;;;;22.00;38.60;;;;;;5072268;28;19928;-69
2024/03/19 04:16:47;;;;;;;;;;;22.00;38.60;;;;;;5071929;28;19973;-69
2024/03/19 04:19:13;;;;;;;;;;;22.00;38.60;;;;;;5072022;28;19925;-69
2024/03/19 04:21:38;;;;;;;;;;;22.00;38.60;;;;;;5055606;28;19982;-69
2024/03/19 04:24:04;;;;;;;;;;;22.00;38.60;;;;;;5071909;28;20370;-71
2024/03/19 04:26:33;;;;;;;;;;;22.00;38.70;;;;;;5071611;28;20301;-69
2024/03/19 04:29:00;;;;;;;;;;;21.90;38.60;;;;;;5072050;28;19978;-69
2024/03/19 04:31:25;;;;;;;;;;;21.90;38.70;;;;;;5072221;28;19925;-69
2024/03/19 04:33:51;;;;;;;;;;;22.00;38.70;;;;;;5058045;28;19924;-69
2024/03/19 04:36:17;;;;;;;;;;;21.90;38.70;;;;;;5075588;28;19924;-70
2024/03/19 04:38:43;;;;;;;;;;;21.90;38.60;;;;;;5075843;28;19932;-69
2024/03/19 04:41:11;;;;;;;;;;;21.90;37.80;;;;;;5076085;28;20057;-70
2024/03/19 04:43:37;;;;;;;;;;;22.00;37.60;;;;;;5069655;28;19924;-69
2024/03/19 04:46:03;;;;;;;;;;;22.00;37.30;;;;;;5065553;28;19971;-69
2024/03/19 04:48:29;;;;;;;;;;;22.00;37.00;;;;;;5065535;28;20297;-69
2024/03/19 04:50:55;;;;;;;;;;;22.00;36.70;;;;;;5063964;28;19929;-69
2024/03/19 04:53:21;;;;;;;;;;;22.10;36.60;;;;;;5066104;28;19924;-70
2024/03/19 04:55:47;;;;;;;;;;;22.10;36.60;;;;;;5063396;28;19925;-69
2024/03/19 04:58:13;;;;;;;;;;;22.10;36.60;;;;;;5055727;28;20271;-70
2024/03/19 05:00:39;;;;;;;;;;;22.10;36.60;;;;;;5055462;28;20294;-70
2024/03/19 05:03:04;;;;;;;;;;;22.10;36.30;;;;;;5055646;28;20306;-69
2024/03/19 05:05:30;;;;;;;;;;;22.10;36.20;;;;;;5055426;28;20321;-69
2024/03/19 05:07:56;;;;;;;;;;;22.10;36.00;;;;;;5055744;28;19931;-69
2024/03/19 05:10:22;;;;;;;;;;;22.10;36.00;;;;;;5065040;28;19933;-69
2024/03/19 05:12:49;;;;;;;;;;;22.10;35.90;;;;;;5065716;28;19925;-69
2024/03/19 05:15:16;;;;;;;;;;;22.10;35.80;;;;;;5063603;28;19932;-69
2024/03/19 05:17:42;;;;;;;;;;;22.10;35.70;;;;;;5064713;28;19928;-69
2024/03/19 05:20:08;;;;;;;;;;;22.10;35.60;;;;;;5065516;28;19931;-69
2024/03/19 05:22:34;;;;;;;;;;;22.10;35.50;;;;;;5066192;28;19999;-69
2024/03/19 05:24:59;;;;;;;;;;;22.10;35.40;;;;;;5075018;28;20019;-69
2024/03/19 05:27:26;;;;;;;;;;;22.20;35.30;;;;;;5075341;28;20259;-69
2024/03/19 05:29:52;;;;;;;;;;;22.20;35.30;;;;;;5074859;28;19925;-69
2024/03/19 05:32:19;;;;;;;;;;;22.20;35.20;;;;;;5074990;28;19924;-69
2024/03/19 05:34:45;;;;;;;;;;;22.20;35.10;;;;;;5074716;28;20030;-69
2024/03/19 05:37:11;;;;;;;;;;;22.20;35.00;;;;;;5070005;28;19946;-69
2024/03/19 05:39:37;;;;;;;;;;;22.20;35.00;;;;;;5064498;28;20379;-68
2024/03/19 05:42:03;;;;;;;;;;;22.20;34.90;;;;;;5065771;28;19924;-68
2024/03/19 05:44:29;;;;;;;;;;;22.20;34.80;;;;;;5049323;28;19940;-69
2024/03/19 05:46:55;;;;;;;;;;;22.30;34.80;;;;;;5070772;28;19929;-68
2024/03/19 05:49:20;;;;;;;;;;;22.30;34.70;;;;;;5074099;28;19924;-69
2024/03/19 05:51:47;;;;;;;;;;;22.30;34.60;;;;;;5074553;28;20015;-69
2024/03/19 05:54:13;;;;;;;;;;;22.30;34.60;;;;;;5074612;28;19924;-69
2024/03/19 05:56:39;;;;;;;;;;;22.30;34.50;;;;;;5071715;28;19947;-69
2024/03/19 05:59:04;;;;;;;;;;;22.40;34.40;;;;;;5068556;28;19936;-68
2024/03/19 06:01:30;;;;;;;;;;;22.40;34.40;;;;;;5065124;28;19932;-69
2024/03/19 06:03:56;;;;;;;;;;;22.40;34.30;;;;;;5065622;28;20343;-68
2024/03/19 06:06:23;;;;;;;;;;;22.40;34.20;;;;;;5056985;28;19936;-69
2024/03/19 06:08:49;;;;;;;;;;;22.40;34.10;;;;;;5058666;28;19925;-68
2024/03/19 06:11:15;;;;;;;;;;;22.40;34.10;;;;;;5069307;28;19924;-69
2024/03/19 06:13:41;;;;;;;;;;;22.40;34.00;;;;;;5067857;28;19932;-68
2024/03/19 06:16:07;;;;;;;;;;;22.40;34.00;;;;;;5063772;28;19929;-68
2024/03/19 06:18:33;;;;;;;;;;;22.40;34.00;;;;;;5073619;28;20385;-69
2024/03/19 06:20:59;;;;;;;;;;;22.40;33.90;;;;;;5066013;28;19924;-69
2024/03/19 06:23:25;;;;;;;;;;;22.40;33.80;;;;;;5043303;28;19928;-73
2024/03/19 06:25:51;;;;;;;;;;;22.40;34.20;;;;;;5070032;28;19928;-67
2024/03/19 06:28:18;;;;;;;;;;;22.50;33.80;;;;;;5068803;28;19931;-67
2024/03/19 06:30:44;;;;;;;;;;;22.50;34.00;;;;;;5053081;28;19932;-67
2024/03/19 06:33:09;;;;;;;;;;;22.50;34.20;;;;;;5060522;28;20501;-65
2024/03/19 06:35:35;;;;;;;;;;;22.60;34.30;;;;;;5061177;28;19933;-65
2024/03/19 06:38:04;;;;;;;;;;;22.70;34.40;;;;;;5068072;28;19971;-67
2024/03/19 06:40:30;;;;;;;;;;;22.70;34.50;;;;;;5061731;28;19928;-68
2024/03/19 06:42:57;;;;;;;;;;;22.70;34.50;;;;;;5054450;28;20427;-70
2024/03/19 06:45:23;;;;;;;;;;;22.80;35.00;;;;;;5059440;28;19959;-71
2024/03/19 06:47:49;;;;;;;;;;;22.80;34.40;;;;;;5059010;28;19924;-69
2024/03/19 06:50:15;;;;;;;;;;;22.90;34.40;;;;;;5062452;28;19924;-70
2024/03/19 06:52:42;;;;;;;;;;;22.90;34.30;;;;;;5062012;28;19933;-70
2024/03/19 06:55:08;;;;;;;;;;;22.90;34.20;;;;;;5057869;28;20386;-70
2024/03/19 06:57:34;;;;;;;;;;;23.00;34.10;;;;;;5059709;28;20404;-70
2024/03/19 07:00:00;;;;;;;;;;;23.00;33.90;;;;;;5054539;28;19935;-71
2024/03/19 07:02:28;;;;;;;;;;;23.10;33.80;;;;;;5052847;28;20259;-65
2024/03/19 07:04:55;;;;;;;;;;;23.10;33.70;;;;;;5056153;28;19998;-69
2024/03/19 07:07:22;;;;;;;;;;;23.10;33.70;;;;;;5051730;28;20594;-64
2024/03/19 07:09:53;;;;;;;;;;;23.20;33.60;;;;;;5057333;28;21403;-62
2024/03/19 07:12:19;;;;;;;;;;;23.20;33.70;;;;;;5041520;28;19924;-66
2024/03/19 07:14:47;;;;;;;;;;;23.30;34.00;;;;;;5058623;28;19969;-64
2024/03/19 07:17:13;;;;;;;;;;;23.30;34.10;;;;;;5040473;28;19944;-64
2024/03/19 07:19:39;;;;;;;;;;;23.40;34.10;;;;;;5056705;28;20382;-64
2024/03/19 07:22:05;;;;;;;;;;;23.40;33.90;;;;;;5059039;28;19958;-64
2024/03/19 07:24:31;;;;;;;;;;;23.40;33.90;;;;;;5054224;28;19936;-65
2024/03/19 07:26:57;;;;;;;;;;;23.40;33.70;;;;;;5053852;28;20400;-64
2024/03/19 07:29:23;;;;;;;;;;;23.50;34.30;;;;;;5053599;28;19948;-62
2024/03/19 07:31:48;;;;;;;;;;;23.50;33.70;;;;;;5056493;28;19928;-63
2024/03/19 07:34:14;;;;;;;;;;;23.60;33.60;;;;;;5056836;28;19928;-66
2024/03/19 07:36:40;;;;;;;;;;;23.60;33.50;;;;;;5052725;28;19932;-65
2024/03/19 07:39:12;;;;;;;;;;;23.60;33.40;;;;;;5052192;28;19931;-66
2024/03/19 07:41:39;;;;;;;;;;;23.60;33.40;;;;;;5058802;28;20378;-66
2024/03/19 07:44:05;;;;;;;;;;;23.70;33.70;;;;;;5053114;28;19982;-63
2024/03/19 07:46:31;;;;;;;;;;;23.70;33.70;;;;;;5051153;28;19939;-66
2024/03/19 07:48:57;;;;;;;;;;;23.70;33.60;;;;;;5058566;28;19932;-68
2024/03/19 07:51:26;;;;;;;;;;;23.80;33.80;;;;;;5022179;28;19933;-61
2024/03/19 07:53:52;;;;;;;;;;;23.80;33.70;;;;;;5056287;28;19924;-60
2024/03/19 07:56:18;;;;;;;;;;;23.80;33.60;;;;;;5053576;28;21238;-62
2024/03/19 07:58:44;;;;;;;;;;;23.90;33.60;;;;;;5047911;28;19928;-63
2024/03/19 08:01:09;;;;;;;;;;;23.90;33.60;;;;;;5047235;28;19932;-63
2024/03/19 08:03:35;;;;;;;;;;;23.90;33.50;;;;;;5048461;28;19938;-65
2024/03/19 08:06:02;;;;;;;;;;;23.90;33.40;;;;;;5051954;28;20439;-64
2024/03/19 08:08:28;;;;;;;;;;;23.90;33.30;;;;;;5023937;28;19932;-65
2024/03/19 08:10:55;;;;;;;;;;;24.00;33.30;;;;;;5052484;28;20293;-67
2024/03/19 08:13:21;;;;;;;;;;;24.00;33.10;;;;;;5054003;28;19933;-65
2024/03/19 08:15:47;;;;;;;;;;;24.00;33.00;;;;;;5050544;28;19932;-63
2024/03/19 08:18:13;;;;;;;;;;;24.00;32.90;;;;;;5050219;28;21003;-63
2024/03/19 08:20:39;;;;;;;;;;;24.10;33.00;;;;;;5054781;28;19932;-65
2024/03/19 08:23:05;;;;;;;;;;;24.10;32.80;;;;;;5059704;28;19938;-63
2024/03/19 08:25:32;;;;;;;;;;;24.10;32.60;;;;;;5053902;28;19983;-66
2024/03/19 08:27:58;;;;;;;;;;;24.10;32.80;;;;;;5052495;28;19940;-62
2024/03/19 08:30:24;;;;;;;;;;;24.10;32.70;;;;;;5041319;28;19929;-65
2024/03/19 08:32:53;;;;;;;;;;;24.10;32.60;;;;;;5052125;28;20340;-61
2024/03/19 08:35:19;;;;;;;;;;;24.20;32.50;;;;;;5053120;28;19932;-62
2024/03/19 08:37:48;;;;;;;;;;;24.20;32.40;;;;;;5055533;28;19932;-63
2024/03/19 08:40:15;;;;;;;;;;;24.20;32.40;;;;;;5054441;28;19932;-64
2024/03/19 08:42:41;;;;;;;;;;;24.20;32.10;;;;;;5055239;28;20365;-65
2024/03/19 08:45:10;;;;;;;;;;;24.20;32.10;;;;;;5057086;28;19971;-63
2024/03/19 08:47:38;;;;;;;;;;;24.20;32.00;;;;;;5059534;28;19933;-63
2024/03/19 08:50:06;;;;;;;;;;;24.20;32.20;;;;;;5055454;28;19933;-63
2024/03/19 08:52:34;;;;;;;;;;;24.20;31.90;;;;;;5049766;28;20510;-62
2024/03/19 08:55:01;;;;;;;;;;;24.20;31.70;;;;;;5050093;28;20046;-64
2024/03/19 08:57:27;;;;;;;;;;;24.20;31.60;;;;;;5050624;28;20405;-64
2024/03/19 08:59:54;;;;;;;;;;;24.30;31.50;;;;;;5052488;28;19928;-63
2024/03/19 09:02:20;;;;;;;;;;;24.30;31.50;;;;;;5059055;28;19944;-62
2024/03/19 09:04:46;;;;;;;;;;;24.30;31.60;;;;;;5052664;28;19938;-63
2024/03/19 09:07:12;;;;;;;;;;;24.30;31.60;;;;;;5055709;28;19925;-63
2024/03/19 09:09:38;;;;;;;;;;;24.30;31.60;;;;;;5051323;28;19932;-62
2024/03/19 09:12:04;;;;;;;;;;;24.30;31.50;;;;;;5056516;28;19982;-63
2024/03/19 09:14:30;;;;;;;;;;;24.30;31.50;;;;;;5057679;28;19933;-61
2024/03/19 09:16:56;;;;;;;;;;;24.30;31.50;;;;;;5056990;28;19933;-62
2024/03/19 09:19:24;;;;;;;;;;;24.30;31.50;;;;;;5056159;28;19928;-62
2024/03/19 09:21:50;;;;;;;;;;;24.40;31.40;;;;;;5060669;28;19994;-63
2024/03/19 09:24:16;;;;;;;;;;;24.30;31.20;;;;;;5062975;28;19932;-64
2024/03/19 09:26:42;;;;;;;;;;;24.40;31.10;;;;;;5062669;28;20051;-63
2024/03/19 09:29:07;;;;;;;;;;;24.40;30.90;;;;;;5061582;28;20233;-62
2024/03/19 09:31:33;;;;;;;;;;;24.40;30.80;;;;;;5057883;28;20411;-62
2024/03/19 09:33:59;;;;;;;;;;;24.40;30.70;;;;;;5060906;28;19933;-63
2024/03/19 09:36:26;;;;;;;;;;;24.40;30.60;;;;;;5044859;28;20325;-63
2024/03/19 09:38:51;;;;;;;;;;;24.40;30.50;;;;;;5059905;28;19924;-62
2024/03/19 09:41:20;;;;;;;;;;;24.40;30.70;;;;;;5038022;28;19951;-62
2024/03/19 09:43:48;;;;;;;;;;;24.40;30.50;;;;;;5059607;28;19939;-62
2024/03/19 09:46:14;;;;;;;;;;;24.40;30.40;;;;;;5062976;28;19998;-63
2024/03/19 09:48:41;;;;;;;;;;;24.40;30.30;;;;;;5057657;28;19944;-62
2024/03/19 09:51:14;;;;;;;;;;;24.40;30.20;;;;;;5061911;28;19925;-64
2024/03/19 09:53:40;;;;;;;;;;;24.40;30.20;;;;;;5057864;28;19955;-62
2024/03/19 09:56:07;;;;;;;;;;;24.40;30.20;;;;;;5056023;28;20286;-64
2024/03/19 09:58:33;;;;;;;;;;;24.50;30.20;;;;;;5062586;28;19936;-64
2024/03/19 10:01:02;;;;;;;;;;;24.50;30.00;;;;;;5058548;28;20619;-64
2024/03/19 10:03:28;;;;;;;;;;;24.50;30.00;;;;;;5057559;28;19935;-64
2024/03/19 10:05:54;;;;;;;;;;;24.50;30.00;;;;;;5057194;28;19924;-62
2024/03/19 10:08:20;;;;;;;;;;;24.50;30.00;;;;;;5055291;28;19932;-62
2024/03/19 10:10:46;;;;;;;;;;;24.50;30.20;;;;;;5056078;28;19932;-62
2024/03/19 10:13:12;;;;;;;;;;;24.50;30.30;;;;;;5057736;28;19932;-62
2024/03/19 10:15:38;;;;;;;;;;;24.50;30.20;;;;;;5058895;28;19932;-62
2024/03/19 10:18:08;;;;;;;;;;;24.50;30.10;;;;;;5059680;28;19933;-62
2024/03/19 10:20:37;;;;;;;;;;;24.50;30.00;;;;;;5057171;28;20905;-62
2024/03/19 10:23:03;;;;;;;;;;;24.60;30.00;;;;;;5055112;28;19948;-62
2024/03/19 10:25:29;;;;;;;;;;;24.60;30.00;;;;;;5038696;28;19982;-61
2024/03/19 10:27:55;;;;;;;;;;;24.60;29.90;;;;;;5059574;28;19971;-61
2024/03/19 10:30:24;;;;;;;;;;;24.60;29.80;;;;;;5060313;28;19931;-63
2024/03/19 10:32:50;;;;;;;;;;;24.60;29.70;;;;;;5055412;28;21001;-62
2024/03/19 10:35:21;;;;;;;;;;;24.60;29.60;;;;;;5057904;28;19939;-61
2024/03/19 10:37:48;;;;;;;;;;;24.60;29.60;;;;;;5058492;28;19942;-61
2024/03/19 10:40:15;;;;;;;;;;;24.60;29.60;;;;;;5060191;28;19951;-61
2024/03/19 10:42:42;;;;;;;;;;;24.60;29.50;;;;;;5057601;28;21276;-60
2024/03/19 10:45:16;;;;;;;;;;;24.60;29.50;;;;;;5058145;28;19925;-64
2024/03/19 10:47:42;;;;;;;;;;;24.70;29.60;;;;;;5060711;28;19939;-61
2024/03/19 10:50:11;;;;;;;;;;;24.70;29.60;;;;;;5051408;28;19925;-61
2024/03/19 10:52:38;;;;;;;;;;;24.70;29.50;;;;;;5024376;28;20570;-62
2024/03/19 10:55:08;;;;;;;;;;;24.70;29.50;;;;;;5058306;28;19932;-63
2024/03/19 10:57:39;;;;;;;;;;;24.70;29.50;;;;;;5063549;28;19974;-62
2024/03/19 11:00:13;;;;;;;;;;;24.70;29.40;;;;;;5059235;28;20544;-61
2024/03/19 11:02:46;;;;;;;;;;;24.70;29.40;;;;;;5059202;28;19925;-61
2024/03/19 11:05:16;;;;;;;;;;;24.70;29.40;;;;;;5040614;28;19932;-62
2024/03/19 11:07:48;;;;;;;;;;;24.70;29.50;;;;;;5041909;28;19933;-62
2024/03/19 11:10:22;;;;;;;;;;;24.70;29.60;;;;;;5061809;28;19974;-62
2024/03/19 11:12:54;;;;;;;;;;;24.70;29.60;;;;;;5054568;28;19948;-61
2024/03/19 11:15:20;;;;;;;;;;;24.80;29.60;;;;;;5060079;28;19932;-61
2024/03/19 11:17:46;;;;;;;;;;;24.80;29.50;;;;;;5065002;28;19924;-61
2024/03/19 11:20:13;;;;;;;;;;;24.80;29.30;;;;;;5060753;28;20365;-62
2024/03/19 11:22:40;;;;;;;;;;;24.80;29.10;;;;;;5059572;28;19932;-61
2024/03/19 11:25:06;;;;;;;;;;;24.80;29.20;;;;;;5054706;28;19928;-61
2024/03/19 11:27:33;;;;;;;;;;;24.80;29.00;;;;;;5057134;28;19932;-63
2024/03/19 11:30:07;;;;;;;;;;;24.80;28.90;;;;;;5061313;28;21466;-64
2024/03/19 11:32:36;;;;;;;;;;;24.80;28.80;;;;;;5058964;28;20271;-64
2024/03/19 11:35:08;;;;;;;;;;;24.80;28.80;;;;;;5058337;28;19924;-62
2024/03/19 11:37:37;;;;;;;;;;;24.80;28.90;;;;;;5052112;28;20421;-61
2024/03/19 11:40:12;;;;;;;;;;;24.80;29.40;;;;;;5051759;28;19924;-62
2024/03/19 11:42:38;;;;;;;;;;;24.80;29.00;;;;;;5049520;28;19985;-61
2024/03/19 11:45:04;;;;;;;;;;;24.80;29.10;;;;;;5050308;28;19932;-62
2024/03/19 11:47:30;;;;;;;;;;;24.80;29.10;;;;;;5038517;28;19929;-61
2024/03/19 11:49:56;;;;;;;;;;;24.80;29.20;;;;;;5055663;28;19994;-63
2024/03/19 11:52:22;;;;;;;;;;;24.80;29.10;;;;;;5039274;28;19929;-64
2024/03/19 11:54:48;;;;;;;;;;;24.80;29.10;;;;;;5054578;28;19924;-60
2024/03/19 11:57:15;;;;;;;;;;;24.80;29.10;;;;;;5052952;28;19995;-61
2024/03/19 11:59:41;;;;;;;;;;;24.80;29.10;;;;;;5055055;28;19928;-61
2024/03/19 12:02:07;;;;;;;;;;;24.80;29.10;;;;;;5056893;28;20396;-61
2024/03/19 12:04:34;;;;;;;;;;;24.90;29.10;;;;;;5055513;28;19925;-61
2024/03/19 12:07:00;;;;;;;;;;;24.90;29.00;;;;;;5052192;28;19986;-63
2024/03/19 12:09:27;;;;;;;;;;;24.90;28.90;;;;;;5058171;28;19928;-62
2024/03/19 12:11:54;;;;;;;;;;;24.90;28.90;;;;;;5053804;28;19933;-59
2024/03/19 12:14:21;;;;;;;;;;;24.90;28.80;;;;;;5056695;28;19932;-59
2024/03/19 12:16:48;;;;;;;;;;;24.90;28.60;;;;;;5059512;28;21990;-59
2024/03/19 12:19:14;;;;;;;;;;;24.90;28.60;;;;;;5059632;28;19935;-59
2024/03/19 12:21:41;;;;;;;;;;;24.90;29.10;;;;;;5057309;28;19937;-60
2024/03/19 12:24:09;;;;;;;;;;;24.90;28.70;;;;;;5075831;28;19959;-62
2024/03/19 12:26:35;;;;;;;;;;;24.90;28.80;;;;;;5056485;28;19925;-62
2024/03/19 12:29:02;;;;;;;;;;;25.00;28.80;;;;;;5055993;28;19939;-62
2024/03/19 12:31:35;;;;;;;;;;;25.00;28.80;;;;;;5055602;28;19932;-63
2024/03/19 12:34:16;;;;;;;;;;;25.00;28.80;;;;;;5049878;28;19937;-64
2024/03/19 12:36:43;;;;;;;;;;;25.00;28.70;;;;;;5052090;28;20435;-62
2024/03/19 12:39:12;;;;;;;;;;;25.00;28.70;;;;;;5056553;28;20435;-63
2024/03/19 12:41:38;;;;;;;;;;;25.00;28.70;;;;;;5061473;28;19932;-62
2024/03/19 12:44:03;;;;;;;;;;;25.00;28.80;;;;;;5056604;28;19991;-62
2024/03/19 12:46:29;;;;;;;;;;;25.00;28.70;;;;;;5055998;28;20348;-62
2024/03/19 12:48:55;;;;;;;;;;;25.10;28.70;;;;;;5034135;28;19943;-62
2024/03/19 12:51:21;;;;;;;;;;;25.00;28.60;;;;;;5050671;28;19974;-60
2024/03/19 12:53:47;;;;;;;;;;;25.10;28.60;;;;;;5055090;28;19964;-58
2024/03/19 12:56:13;;;;;;;;;;;25.00;28.60;;;;;;5061077;28;19947;-58
2024/03/19 12:58:39;;;;;;;;;;;25.10;28.80;;;;;;5058286;28;20595;-59
2024/03/19 13:01:05;;;;;;;;;;;25.10;28.70;;;;;;5057444;28;19947;-59
2024/03/19 13:03:30;;;;;;;;;;;25.10;28.70;;;;;;5060794;28;19933;-60
2024/03/19 13:05:56;;;;;;;;;;;25.10;28.60;;;;;;5061816;28;19936;-60
2024/03/19 13:08:22;;;;;;;;;;;25.10;28.60;;;;;;5040501;28;19982;-60
2024/03/19 13:10:48;;;;;;;;;;;25.10;28.70;;;;;;5055448;28;19933;-62
2024/03/19 13:13:14;;;;;;;;;;;25.10;28.70;;;;;;5061086;28;20389;-60
2024/03/19 13:15:40;;;;;;;;;;;25.20;28.80;;;;;;5057946;28;19940;-63
2024/03/19 13:18:06;;;;;;;;;;;25.10;28.70;;;;;;5061903;28;19928;-63
2024/03/19 13:20:32;;;;;;;;;;;25.20;28.70;;;;;;5063480;28;19947;-62
2024/03/19 13:22:58;;;;;;;;;;;25.20;28.90;;;;;;5055940;28;19933;-61
2024/03/19 13:25:24;;;;;;;;;;;25.20;28.80;;;;;;5057859;28;19936;-61
2024/03/19 13:27:50;;;;;;;;;;;25.20;28.40;;;;;;5059147;28;19985;-62
2024/03/19 13:30:16;;;;;;;;;;;25.20;28.10;;;;;;5058446;28;19958;-61
2024/03/19 13:32:42;;;;;;;;;;;25.30;28.00;;;;;;5062688;28;19939;-64
2024/03/19 13:35:08;;;;;;;;;;;25.30;27.90;;;;;;5057530;28;19946;-63
2024/03/19 13:37:35;;;;;;;;;;;25.30;27.90;;;;;;5057856;28;20300;-63
2024/03/19 13:40:01;;;;;;;;;;;25.20;27.90;;;;;;5059758;28;19936;-61
2024/03/19 13:42:30;;;;;;;;;;;25.30;28.00;;;;;;5058737;28;19986;-61
2024/03/19 13:44:55;;;;;;;;;;;25.30;27.90;;;;;;5060252;28;19925;-62
2024/03/19 13:47:22;;;;;;;;;;;25.30;27.40;;;;;;5058998;28;19940;-62
2024/03/19 13:49:48;;;;;;;;;;;25.30;27.10;;;;;;5042448;28;19967;-61
2024/03/19 13:52:13;;;;;;;;;;;25.30;27.00;;;;;;5055595;28;20742;-61
2024/03/19 13:54:39;;;;;;;;;;;25.20;26.70;;;;;;5058449;28;19932;-62
2024/03/19 13:57:06;;;;;;;;;;;25.20;27.00;;;;;;5064140;28;19925;-63
2024/03/19 13:59:32;;;;;;;;;;;25.20;27.10;;;;;;5057830;28;19939;-63
2024/03/19 14:01:58;;;;;;;;;;;25.20;27.70;;;;;;5061067;28;20492;-63
2024/03/19 14:04:30;;;;;;;;;;;25.20;27.30;;;;;;5058101;28;20031;-62
2024/03/19 14:06:57;;;;;;;;;;;25.20;27.50;;;;;;5056421;28;20389;-59
2024/03/19 14:09:23;;;;;;;;;;;25.20;27.60;;;;;;5057240;28;19939;-62
2024/03/19 14:11:49;;;;;;;;;;;25.20;27.60;;;;;;5062049;28;19925;-64